Yuedian 58 — BYFE — position and weather

sailwx.info

Track history (hours):
 
Tides and Currents Weather Stations Pressure Air Temp Water Temp Dewpoint Dewpoint Depression Visibility Wind Speed Wind Dir Waves Ship Positions

Yuedian 58

Last reported at 2017-May-22 07:29 UTC. Time now 2017-May-27 21:06 UTC.
Position N 24°16' E 118°39'.

Length 190 m; draft 12.7 m.

Type: Ship. MMSI: 414008000.

Date/timePositionNaut miles runAvg speedWind from/ knotsBaromVisibWave heightAir tempDewpointWater temp
2017-May-22 07:29N 24°16' E 118°39'  
2017-May-16 16:13N 23°51' E 118°08'1212.1
2017-May-16 15:14N 23°59' E 118°17'312.0
2017-May-16 15:00N 24°01' E 118°19'712.1
2017-May-16 14:28N 24°05' E 118°25'51012.7
2017-May-14 22:18N 31°23' E 123°20'513.7
2017-May-14 21:57N 31°28' E 123°20'813.6
2017-May-14 21:21N 31°36' E 123°20'38312.7
2017-May-13 15:16N 37°55' E 122°16'1013.4
2017-May-13 14:32N 37°60' E 122°05'013.2
2017-May-13 14:31N 38°00' E 122°05'1313.4
2017-May-13 13:30N 38°07' E 121°50'713.4
2017-May-13 13:00N 38°11' E 121°43'713.8
2017-May-13 12:30N 38°14' E 121°35'713.8
2017-May-13 12:00N 38°18' E 121°28'713.9
2017-May-13 11:30N 38°21' E 121°20'714.0
2017-May-13 11:00N 38°25' E 121°13'713.8
2017-May-13 10:30N 38°28' E 121°05'713.0
2017-May-13 10:00N 38°32' E 120°58'1910.6
2017-May-13 08:14N 38°47' E 120°43'811.8
2017-May-13 07:32N 38°54' E 120°38'011.8
2017-May-13 07:30N 38°54' E 120°37'611.2
2017-May-13 07:00N 38°59' E 120°34'  
Track history (hours):
 
Tides and Currents Weather Stations Pressure Air Temp Water Temp Dewpoint Dewpoint Depression Visibility Wind Speed Wind Dir Waves Ship Positions

Yuedian 58

Last reported at 2017-May-22 07:29 UTC. Time now 2017-May-27 21:06 UTC.
Position N 24°16' E 118°39'.

Length 190 m; draft 12.7 m.

Type: Ship. MMSI: 414008000.

Date/timePositionNaut miles runAvg speedWind from/ knotsBaromVisibWave heightAir tempDewpointWater temp
2017-May-22 07:29N 24°16' E 118°39'  
2017-May-16 16:13N 23°51' E 118°08'1212.1
2017-May-16 15:14N 23°59' E 118°17'312.0
2017-May-16 15:00N 24°01' E 118°19'712.1
2017-May-16 14:28N 24°05' E 118°25'51012.7
2017-May-14 22:18N 31°23' E 123°20'513.7
2017-May-14 21:57N 31°28' E 123°20'813.6
2017-May-14 21:21N 31°36' E 123°20'38312.7
2017-May-13 15:16N 37°55' E 122°16'1013.4
2017-May-13 14:32N 37°60' E 122°05'013.2
2017-May-13 14:31N 38°00' E 122°05'1313.4
2017-May-13 13:30N 38°07' E 121°50'713.4
2017-May-13 13:00N 38°11' E 121°43'713.8
2017-May-13 12:30N 38°14' E 121°35'713.8
2017-May-13 12:00N 38°18' E 121°28'713.9
2017-May-13 11:30N 38°21' E 121°20'714.0
2017-May-13 11:00N 38°25' E 121°13'713.8
2017-May-13 10:30N 38°28' E 121°05'713.0
2017-May-13 10:00N 38°32' E 120°58'1910.6
2017-May-13 08:14N 38°47' E 120°43'811.8
2017-May-13 07:32N 38°54' E 120°38'011.8
2017-May-13 07:30N 38°54' E 120°37'611.2
2017-May-13 07:00N 38°59' E 120°34'  

Dump ship's entire track history